createdAt,value
2022-10-24T00:01:17.711Z,2.00
2022-10-24T00:03:45.314Z,2.13
2022-10-24T00:06:13.814Z,1.90
2022-10-24T00:08:43.004Z,2.10
2022-10-24T00:11:12.765Z,2.47
2022-10-24T00:13:40.081Z,1.98
2022-10-24T00:16:07.512Z,2.20
2022-10-24T00:18:34.689Z,2.65
2022-10-24T00:21:01.562Z,2.35
2022-10-24T00:23:28.616Z,2.33
2022-10-24T00:25:55.500Z,2.38
2022-10-24T00:28:22.410Z,2.50
2022-10-24T00:30:52.869Z,2.38
2022-10-24T00:33:20.070Z,2.40
2022-10-24T00:35:47.328Z,2.17
2022-10-24T00:38:14.718Z,2.33
2022-10-24T00:40:41.877Z,2.70
2022-10-24T00:43:20.815Z,2.55
2022-10-24T00:45:51.420Z,2.38
2022-10-24T00:48:23.674Z,2.30
2022-10-24T00:50:54.541Z,2.47
2022-10-24T00:53:23.103Z,2.45
2022-10-24T00:55:53.193Z,2.53
2022-10-24T00:58:23.501Z,2.13
2022-10-24T01:00:50.512Z,2.47
2022-10-24T01:03:17.714Z,2.10
2022-10-24T01:06:05.992Z,2.67
2022-10-24T01:08:58.525Z,2.67
2022-10-24T01:12:03.017Z,2.40
2022-10-24T01:14:29.806Z,2.28
2022-10-24T01:17:37.085Z,2.70
2022-10-24T01:20:25.584Z,2.65
2022-10-24T01:23:14.992Z,2.58
2022-10-24T01:26:17.687Z,2.65
2022-10-24T01:29:17.067Z,2.83
2022-10-24T01:31:57.811Z,2.60
2022-10-24T01:34:31.269Z,2.80
2022-10-24T01:37:29.377Z,2.58
2022-10-24T01:40:07.071Z,2.55
2022-10-24T01:42:38.548Z,2.75
2022-10-24T01:45:07.540Z,2.60
2022-10-24T01:47:40.806Z,2.70
2022-10-24T01:50:11.978Z,2.72
2022-10-24T01:55:09.529Z,2.60
2022-10-24T01:57:36.574Z,2.38
2022-10-24T02:00:06.803Z,2.75
2022-10-24T02:02:40.077Z,2.60
2022-10-24T02:05:36.772Z,2.42
2022-10-24T02:08:09.625Z,2.70
2022-10-24T02:10:44.023Z,2.63
2022-10-24T02:13:42.549Z,2.67
2022-10-24T02:16:10.090Z,2.50
2022-10-24T02:18:39.825Z,2.58
2022-10-24T02:21:28.874Z,2.47
2022-10-24T02:24:06.934Z,2.55
2022-10-24T02:26:41.319Z,2.60
2022-10-24T02:29:18.983Z,2.80
2022-10-24T02:31:53.745Z,2.72
2022-10-24T02:34:24.149Z,2.35
2022-10-24T02:36:55.000Z,2.50
2022-10-24T02:39:23.337Z,2.35
2022-10-24T02:41:54.919Z,2.40
2022-10-24T02:44:22.949Z,2.50
2022-10-24T02:46:53.099Z,2.30
2022-10-24T02:49:19.954Z,2.60
2022-10-24T02:51:48.316Z,2.15
2022-10-24T02:54:15.271Z,2.63
2022-10-24T02:56:48.035Z,2.30
2022-10-24T02:59:14.871Z,2.58
2022-10-24T03:01:41.752Z,2.60
2022-10-24T03:04:08.636Z,2.85
2022-10-24T03:06:35.895Z,2.22
2022-10-24T03:09:02.829Z,2.78
2022-10-24T03:11:29.680Z,2.33
2022-10-24T03:13:56.913Z,2.60
2022-10-24T03:16:23.729Z,2.33
2022-10-24T03:18:50.640Z,2.60
2022-10-24T03:21:17.456Z,2.60
2022-10-24T03:23:44.316Z,2.50
2022-10-24T03:26:11.076Z,3.00
2022-10-24T03:28:38.073Z,2.28
2022-10-24T03:31:05.595Z,2.65
2022-10-24T03:33:33.012Z,2.60
2022-10-24T03:36:00.150Z,2.50
2022-10-24T03:38:27.130Z,3.00
2022-10-24T03:40:54.101Z,2.47
2022-10-24T03:43:21.053Z,2.75
2022-10-24T03:45:48.012Z,2.55
2022-10-24T03:48:15.395Z,2.60
2022-10-24T03:50:42.480Z,3.00
2022-10-24T03:53:09.355Z,2.90
2022-10-24T03:55:36.359Z,2.42
2022-10-24T03:58:03.234Z,2.40
2022-10-24T04:00:30.178Z,2.60
2022-10-24T04:02:57.091Z,2.17
2022-10-24T04:05:23.925Z,2.42
2022-10-24T04:07:50.821Z,2.50
2022-10-24T04:10:17.848Z,2.33
2022-10-24T04:12:44.764Z,2.42
2022-10-24T04:15:11.839Z,2.30
2022-10-24T04:17:38.877Z,2.30
2022-10-24T04:20:06.587Z,2.42
2022-10-24T04:22:33.441Z,2.10
2022-10-24T04:25:00.328Z,2.03
2022-10-24T04:27:27.242Z,2.08
2022-10-24T04:29:54.108Z,2.00
2022-10-24T04:32:21.046Z,1.95
2022-10-24T04:34:48.035Z,1.73
2022-10-24T04:37:14.894Z,2.00
2022-10-24T04:39:41.737Z,1.92
2022-10-24T04:42:08.519Z,1.90
2022-10-24T04:44:35.341Z,2.15
2022-10-24T04:47:02.343Z,2.35
2022-10-24T04:49:29.159Z,2.10
2022-10-24T04:51:55.961Z,2.00
2022-10-24T04:54:22.909Z,2.10
2022-10-24T04:56:49.735Z,2.28
2022-10-24T04:59:16.605Z,2.10
2022-10-24T05:01:43.482Z,2.20
2022-10-24T05:04:10.528Z,1.80
2022-10-24T05:06:39.250Z,2.33
2022-10-24T05:09:08.298Z,1.88
2022-10-24T05:11:35.609Z,1.98
2022-10-24T05:14:02.432Z,1.48
2022-10-24T05:16:29.209Z,1.80
2022-10-24T05:18:55.989Z,2.03
2022-10-24T05:21:22.934Z,1.63
2022-10-24T05:23:49.874Z,1.83
2022-10-24T05:26:16.751Z,1.90
2022-10-24T05:28:43.664Z,1.90
2022-10-24T05:31:10.610Z,1.50
2022-10-24T05:33:37.457Z,1.70
2022-10-24T05:36:05.786Z,1.85
2022-10-24T05:38:32.635Z,1.85
2022-10-24T05:40:59.501Z,1.90
2022-10-24T05:43:26.295Z,2.28
2022-10-24T05:45:53.229Z,2.40
2022-10-24T05:48:20.074Z,2.08
2022-10-24T05:50:46.891Z,2.10
2022-10-24T05:53:13.743Z,2.30
2022-10-24T05:55:40.724Z,1.70
2022-10-24T05:58:08.116Z,1.73
2022-10-24T06:00:35.116Z,1.83
2022-10-24T06:03:02.153Z,1.92
2022-10-24T06:05:28.994Z,1.70
2022-10-24T06:07:55.835Z,1.77
2022-10-24T06:10:22.903Z,1.80
2022-10-24T06:12:49.809Z,1.80
2022-10-24T06:15:16.993Z,1.42
2022-10-24T06:17:43.925Z,1.45
2022-10-24T06:20:11.024Z,1.80
2022-10-24T06:22:38.247Z,1.50
2022-10-24T06:25:05.652Z,1.33
2022-10-24T06:27:32.571Z,1.50
2022-10-24T06:29:59.520Z,1.58
2022-10-24T06:32:26.464Z,3.30
2022-10-24T06:34:53.447Z,4.13
2022-10-24T06:37:20.305Z,4.00
2022-10-24T06:39:47.199Z,4.35
2022-10-24T06:42:14.615Z,4.20
2022-10-24T06:44:41.554Z,3.60
2022-10-24T06:47:08.465Z,3.20
2022-10-24T06:49:35.508Z,3.08
2022-10-24T06:52:02.587Z,2.97
2022-10-24T06:54:30.652Z,3.20
2022-10-24T06:56:57.899Z,2.85
2022-10-24T06:59:24.874Z,2.85
2022-10-24T07:01:51.932Z,2.63
2022-10-24T07:04:18.909Z,2.70
2022-10-24T07:06:46.233Z,2.45
2022-10-24T07:09:15.405Z,2.30
2022-10-24T07:11:43.432Z,2.55
2022-10-24T07:14:10.856Z,2.35
2022-10-24T07:16:38.463Z,2.13
2022-10-24T07:19:06.590Z,2.03
2022-10-24T07:21:34.474Z,2.20
2022-10-24T07:24:01.836Z,2.22
2022-10-24T07:26:29.940Z,2.00
2022-10-24T07:31:49.000Z,2.38
2022-10-24T07:34:16.225Z,1.90
2022-10-24T07:36:43.981Z,1.90
2022-10-24T07:39:12.339Z,2.10
2022-10-24T07:41:43.671Z,1.92
2022-10-24T07:44:11.462Z,1.83
2022-10-24T07:46:38.749Z,1.92
2022-10-24T07:49:05.790Z,1.75
2022-10-24T07:51:32.843Z,1.90
2022-10-24T07:54:00.114Z,1.60
2022-10-24T07:56:27.319Z,1.80
2022-10-24T07:58:56.527Z,1.83
2022-10-24T08:01:25.722Z,1.95
2022-10-24T08:03:52.780Z,1.70
2022-10-24T08:06:29.009Z,1.70
2022-10-24T08:08:56.348Z,1.60
2022-10-24T08:11:26.418Z,1.60
2022-10-24T08:13:57.673Z,1.60
2022-10-24T08:16:25.811Z,1.70
2022-10-24T08:18:56.137Z,1.60
2022-10-24T08:21:24.328Z,1.53
2022-10-24T08:23:54.026Z,1.60
2022-10-24T08:26:23.150Z,1.60
2022-10-24T08:28:51.001Z,1.70
2022-10-24T08:31:20.894Z,1.60
2022-10-24T08:33:48.954Z,1.45
2022-10-24T08:36:26.936Z,1.27
2022-10-24T08:38:55.157Z,1.75
2022-10-24T08:41:28.620Z,1.52
2022-10-24T08:43:58.291Z,1.27
2022-10-24T08:46:50.722Z,1.58
2022-10-24T08:49:41.907Z,1.60
2022-10-24T08:52:40.818Z,1.60
2022-10-24T08:55:44.310Z,1.80
2022-10-24T08:58:07.702Z,1.90
2022-10-24T09:00:42.292Z,1.58
2022-10-24T09:03:26.661Z,1.50
2022-10-24T09:06:16.910Z,1.80
2022-10-24T09:09:04.459Z,1.80
2022-10-24T09:11:45.864Z,1.80
2022-10-24T09:14:19.989Z,1.75
2022-10-24T09:16:52.805Z,1.40
2022-10-24T09:19:23.957Z,1.70
2022-10-24T09:24:39.992Z,1.40
2022-10-24T09:30:18.376Z,1.60
2022-10-24T09:32:45.704Z,1.55
2022-10-24T09:35:19.701Z,1.77
2022-10-24T09:37:58.161Z,1.60
2022-10-24T09:40:26.755Z,1.70
2022-10-24T09:43:04.745Z,1.70
2022-10-24T09:46:02.271Z,1.40
2022-10-24T09:48:49.977Z,1.30
2022-10-24T09:51:35.382Z,1.45
2022-10-24T09:54:07.888Z,1.10
2022-10-24T09:56:42.657Z,1.33
2022-10-24T09:59:33.889Z,1.08
2022-10-24T10:02:23.685Z,1.25
2022-10-24T10:05:17.992Z,1.20
2022-10-24T10:07:49.065Z,1.20
2022-10-24T10:12:48.634Z,1.38
2022-10-24T10:15:33.350Z,1.20
2022-10-24T10:18:03.105Z,1.00
2022-10-24T10:20:42.621Z,1.17
2022-10-24T10:23:29.858Z,1.13
2022-10-24T10:26:15.231Z,1.00
2022-10-24T10:28:46.307Z,1.00
2022-10-24T10:31:13.671Z,1.10
2022-10-24T10:33:47.504Z,0.93
2022-10-24T10:36:22.991Z,0.93
2022-10-24T10:39:45.057Z,0.77
2022-10-24T10:42:14.873Z,1.08
2022-10-24T10:45:37.706Z,0.88
2022-10-24T10:48:33.360Z,0.90
2022-10-24T10:51:21.136Z,0.85
2022-10-24T10:54:03.130Z,0.98
2022-10-24T10:56:56.240Z,0.85
2022-10-24T10:59:47.995Z,0.75
2022-10-24T11:02:57.193Z,1.00
2022-10-24T11:05:47.785Z,0.90
2022-10-24T11:08:20.591Z,0.88
2022-10-24T11:10:55.223Z,0.88
2022-10-24T11:13:34.982Z,0.82
2022-10-24T11:16:07.157Z,0.60
2022-10-24T11:18:42.725Z,0.80
2022-10-24T11:21:13.435Z,0.85
2022-10-24T11:23:52.632Z,0.80
2022-10-24T11:26:27.356Z,0.60
2022-10-24T11:28:59.948Z,0.80
2022-10-24T11:31:32.795Z,0.90
2022-10-24T11:34:11.942Z,1.08
2022-10-24T11:36:57.410Z,1.00
2022-10-24T11:39:27.140Z,0.77
2022-10-24T11:42:06.210Z,0.90
2022-10-24T11:44:50.263Z,0.73
2022-10-24T11:47:38.872Z,0.93
2022-10-24T11:50:06.068Z,0.80
2022-10-24T11:52:42.647Z,0.70
2022-10-24T11:55:24.370Z,0.90
2022-10-24T11:57:55.272Z,0.70
2022-10-24T12:00:31.210Z,0.80
2022-10-24T12:03:27.483Z,0.80
2022-10-24T12:06:25.163Z,0.93
2022-10-24T12:09:19.171Z,0.90
2022-10-24T12:12:07.099Z,0.90
2022-10-24T12:14:45.923Z,0.80
2022-10-24T12:17:34.540Z,0.98
2022-10-24T12:20:02.775Z,0.90
2022-10-24T12:22:36.706Z,0.90
2022-10-24T12:25:08.691Z,0.80
2022-10-24T12:27:39.819Z,0.90
2022-10-24T12:32:46.751Z,0.82
2022-10-24T12:35:47.324Z,1.10
2022-10-24T12:38:34.377Z,0.90
2022-10-24T12:41:22.748Z,0.70
2022-10-24T12:43:50.113Z,0.70
2022-10-24T12:46:21.889Z,0.90
2022-10-24T12:48:59.656Z,0.85
2022-10-24T12:51:33.702Z,0.82
2022-10-24T12:54:04.370Z,0.70
2022-10-24T12:56:33.575Z,0.82
2022-10-24T12:59:20.853Z,0.80
2022-10-24T13:01:50.402Z,1.00
2022-10-24T13:04:57.402Z,0.85
2022-10-24T13:07:27.489Z,0.85
2022-10-24T13:10:10.409Z,0.90
2022-10-24T13:12:58.591Z,1.00
2022-10-24T13:16:13.151Z,0.85
2022-10-24T13:19:07.936Z,0.63
2022-10-24T13:21:48.499Z,0.90
2022-10-24T13:24:15.422Z,0.77
2022-10-24T13:26:56.311Z,0.90
2022-10-24T13:29:29.249Z,0.80
2022-10-24T13:32:18.778Z,0.77
2022-10-24T13:34:50.875Z,0.60
2022-10-24T13:37:23.974Z,0.73
2022-10-24T13:39:53.584Z,0.73
2022-10-24T13:42:25.719Z,0.90
2022-10-24T13:44:59.053Z,0.90
2022-10-24T13:47:41.010Z,0.82
2022-10-24T13:50:11.022Z,1.00
2022-10-24T13:52:49.480Z,0.98
2022-10-24T13:55:39.233Z,0.88
2022-10-24T13:58:06.288Z,0.82
2022-10-24T14:00:37.986Z,0.80
2022-10-24T14:03:12.911Z,0.85
2022-10-24T14:05:46.096Z,1.00
2022-10-24T14:08:30.854Z,0.95
2022-10-24T14:11:00.676Z,0.80
2022-10-24T14:13:30.251Z,1.00
2022-10-24T14:16:07.701Z,0.90
2022-10-24T14:18:37.391Z,1.00
2022-10-24T14:21:05.699Z,1.00
2022-10-24T14:23:41.022Z,0.90
2022-10-24T14:26:19.490Z,0.80
2022-10-24T14:28:50.905Z,0.80
2022-10-24T14:31:24.929Z,0.82
2022-10-24T14:33:55.182Z,0.85
2022-10-24T14:36:26.094Z,1.03
2022-10-24T14:38:59.129Z,1.13
2022-10-24T14:41:35.168Z,0.80
2022-10-24T14:44:03.076Z,1.13
2022-10-24T14:46:35.412Z,1.00
2022-10-24T14:49:21.769Z,1.10
2022-10-24T14:54:51.947Z,1.30
2022-10-24T14:57:21.707Z,1.13
2022-10-24T14:59:51.811Z,1.20
2022-10-24T15:02:24.281Z,1.50
2022-10-24T15:04:52.405Z,1.58
2022-10-24T15:07:38.114Z,1.15
2022-10-24T15:10:13.091Z,1.30
2022-10-24T15:12:46.976Z,1.25
2022-10-24T15:15:24.172Z,1.23
2022-10-24T15:17:54.325Z,1.27
2022-10-24T15:20:24.391Z,1.42
2022-10-24T15:22:55.283Z,1.20
2022-10-24T15:25:36.847Z,1.30
2022-10-24T15:28:06.943Z,1.13
2022-10-24T15:30:38.374Z,1.10
2022-10-24T15:33:08.151Z,1.20
2022-10-24T15:35:40.050Z,1.30
2022-10-24T15:38:19.002Z,1.30
2022-10-24T15:40:48.986Z,1.25
2022-10-24T15:43:20.084Z,1.33
2022-10-24T15:48:14.018Z,1.55
2022-10-24T15:50:46.547Z,1.88
2022-10-24T15:53:22.960Z,1.70
2022-10-24T15:55:50.051Z,1.50
2022-10-24T15:58:18.503Z,1.30
2022-10-24T16:00:45.831Z,1.20
2022-10-24T16:03:17.675Z,1.27
2022-10-24T16:05:49.362Z,1.30
2022-10-24T16:08:19.181Z,1.50
2022-10-24T16:10:51.335Z,1.13
2022-10-24T16:13:20.856Z,1.48
2022-10-24T16:15:48.982Z,1.17
2022-10-24T16:18:16.113Z,1.20
2022-10-24T16:20:43.218Z,0.90
2022-10-24T16:23:14.218Z,1.20
2022-10-24T16:25:41.364Z,1.15
2022-10-24T16:28:08.533Z,1.15
2022-10-24T16:30:38.274Z,1.15
2022-10-24T16:33:06.126Z,0.98
2022-10-24T16:35:35.315Z,1.60
2022-10-24T16:38:03.732Z,2.00
2022-10-24T16:40:31.500Z,2.67
2022-10-24T16:42:59.708Z,1.67
2022-10-24T16:45:26.828Z,2.03
2022-10-24T16:47:53.768Z,1.80
2022-10-24T16:50:24.529Z,1.52
2022-10-24T16:53:07.074Z,1.38
2022-10-24T16:55:34.883Z,1.40
2022-10-24T16:58:01.925Z,1.35
2022-10-24T17:00:30.562Z,1.00
2022-10-24T17:02:58.908Z,1.40
2022-10-24T17:05:29.977Z,0.90
2022-10-24T17:07:58.940Z,0.90
2022-10-24T17:10:26.086Z,1.10
2022-10-24T17:12:53.415Z,1.10
2022-10-24T17:15:22.276Z,1.30
2022-10-24T17:17:50.365Z,1.20
2022-10-24T17:20:17.891Z,1.08
2022-10-24T17:22:46.788Z,1.45
2022-10-24T17:25:20.334Z,1.20
2022-10-24T17:27:48.065Z,1.10
2022-10-24T17:30:21.851Z,1.40
2022-10-24T17:32:49.638Z,1.30
2022-10-24T17:35:20.997Z,1.17
2022-10-24T17:40:25.488Z,1.40
2022-10-24T17:42:52.867Z,1.45
2022-10-24T17:45:24.080Z,1.33
2022-10-24T17:50:20.051Z,1.50
2022-10-24T17:52:51.365Z,1.40
2022-10-24T17:58:14.376Z,1.60
2022-10-24T18:00:41.594Z,1.50
2022-10-24T18:03:09.047Z,1.50
2022-10-24T18:05:38.647Z,1.40
2022-10-24T18:08:12.484Z,1.38
2022-10-24T18:10:41.736Z,1.75
2022-10-24T18:13:10.005Z,1.50
2022-10-24T18:15:38.199Z,1.52
2022-10-24T18:18:05.859Z,1.67
2022-10-24T18:20:33.304Z,2.53
2022-10-24T18:23:00.679Z,2.28
2022-10-24T18:25:28.808Z,2.63
2022-10-24T18:27:56.807Z,2.38
2022-10-24T18:30:24.090Z,6.38
2022-10-24T18:32:51.789Z,2.95
2022-10-24T18:35:19.002Z,2.83
2022-10-24T18:37:46.364Z,3.22
2022-10-24T18:40:14.714Z,3.80
2022-10-24T18:42:54.495Z,6.60
2022-10-24T18:45:24.596Z,4.82
2022-10-24T18:47:52.936Z,6.47
2022-10-24T18:50:22.774Z,6.47
2022-10-24T18:53:11.147Z,7.45
2022-10-24T18:55:39.241Z,7.85
2022-10-24T18:58:13.268Z,7.38
2022-10-24T19:00:42.597Z,16.67
2022-10-24T19:03:34.112Z,49.95
2022-10-24T19:06:20.117Z,57.72
2022-10-24T19:08:47.535Z,53.10
2022-10-24T19:11:15.847Z,48.40
2022-10-24T19:13:45.281Z,45.53
2022-10-24T19:16:19.611Z,42.03
2022-10-24T19:18:54.011Z,41.65
2022-10-24T19:21:21.763Z,36.97
2022-10-24T19:23:50.682Z,34.17
2022-10-24T19:26:17.955Z,30.90
2022-10-24T19:28:45.315Z,27.58
2022-10-24T19:31:15.381Z,27.58
2022-10-24T19:33:46.739Z,26.00
2022-10-24T19:36:19.069Z,14.93
2022-10-24T19:38:47.124Z,9.73
2022-10-24T19:41:14.351Z,9.95
2022-10-24T19:43:41.618Z,11.57
2022-10-24T19:46:19.905Z,11.07
2022-10-24T19:49:08.006Z,10.18
2022-10-24T19:51:35.530Z,7.70
2022-10-24T19:54:04.242Z,7.00
2022-10-24T19:56:32.003Z,6.30
2022-10-24T19:58:59.589Z,6.13
2022-10-24T20:01:30.337Z,5.68
2022-10-24T20:03:58.369Z,5.70
2022-10-24T20:06:28.770Z,5.50
2022-10-24T20:08:56.261Z,5.40
2022-10-24T20:11:23.507Z,6.32
2022-10-24T20:13:50.919Z,5.22
2022-10-24T20:16:18.311Z,5.30
2022-10-24T20:18:45.903Z,4.65
2022-10-24T20:21:16.654Z,4.47
2022-10-24T20:23:47.496Z,4.32
2022-10-24T20:26:21.144Z,4.15
2022-10-24T20:28:52.221Z,4.00
2022-10-24T20:33:49.134Z,3.45
2022-10-24T20:36:18.872Z,3.97
2022-10-24T20:38:46.883Z,3.25
2022-10-24T20:41:14.322Z,3.22
2022-10-24T20:43:42.088Z,3.00
2022-10-24T20:46:11.108Z,3.25
2022-10-24T20:48:40.138Z,2.85
2022-10-24T20:51:16.446Z,2.67
2022-10-24T20:53:44.952Z,2.90
2022-10-24T20:56:23.623Z,2.80
2022-10-24T20:58:52.323Z,3.08
2022-10-24T21:01:25.635Z,4.47
2022-10-24T21:03:54.805Z,2.67
2022-10-24T21:06:30.783Z,2.28
2022-10-24T21:09:00.929Z,2.83
2022-10-24T21:11:30.682Z,2.43
2022-10-24T21:14:04.048Z,2.50
2022-10-24T21:16:32.063Z,2.40
2022-10-24T21:19:03.212Z,2.47
2022-10-24T21:24:06.622Z,2.13
2022-10-24T21:26:40.481Z,2.55
2022-10-24T21:31:59.997Z,1.85
2022-10-24T21:34:31.615Z,2.08
2022-10-24T21:37:01.562Z,1.65
2022-10-24T21:39:29.472Z,1.98
2022-10-24T21:41:57.331Z,1.80
2022-10-24T21:44:24.589Z,1.85
2022-10-24T21:46:52.627Z,1.60
2022-10-24T21:49:21.040Z,1.50
2022-10-24T21:51:50.055Z,1.80
2022-10-24T21:54:26.181Z,1.52
2022-10-24T21:56:53.646Z,1.30
2022-10-24T21:59:22.545Z,1.70
2022-10-24T22:01:51.532Z,1.45
2022-10-24T22:04:24.136Z,1.20
2022-10-24T22:06:52.013Z,1.27
2022-10-24T22:09:24.306Z,0.95
2022-10-24T22:11:51.797Z,1.48
2022-10-24T22:14:19.264Z,1.33
2022-10-24T22:16:46.943Z,1.40
2022-10-24T22:19:14.586Z,1.27
2022-10-24T22:21:47.887Z,1.38
2022-10-24T22:24:21.819Z,1.20
2022-10-24T22:26:51.186Z,1.20
2022-10-24T22:29:23.355Z,1.20
2022-10-24T22:31:52.312Z,1.20
2022-10-24T22:34:22.834Z,1.05
2022-10-24T22:37:14.118Z,1.10
2022-10-24T22:39:41.379Z,1.30
2022-10-24T22:42:19.171Z,1.20
2022-10-24T22:44:48.320Z,1.10
2022-10-24T22:47:32.597Z,1.20
2022-10-24T22:50:36.687Z,1.23
2022-10-24T22:53:04.168Z,0.93
2022-10-24T22:56:12.889Z,1.30
2022-10-24T22:58:42.328Z,1.00
2022-10-24T23:01:21.904Z,1.00
2022-10-24T23:03:49.315Z,0.90
2022-10-24T23:06:27.301Z,0.90
2022-10-24T23:08:54.192Z,1.10
2022-10-24T23:11:21.424Z,0.90
2022-10-24T23:13:48.582Z,1.10
2022-10-24T23:16:22.988Z,0.80
2022-10-24T23:18:50.156Z,0.98
2022-10-24T23:21:29.033Z,1.00
2022-10-24T23:23:56.139Z,1.25
2022-10-24T23:26:55.997Z,1.00
2022-10-24T23:29:35.779Z,0.85
2022-10-24T23:32:04.453Z,0.85
2022-10-24T23:34:32.035Z,1.10
2022-10-24T23:37:03.201Z,1.10
2022-10-24T23:42:00.740Z,0.93
2022-10-24T23:44:28.069Z,1.05
2022-10-24T23:47:13.420Z,1.00
2022-10-24T23:49:51.370Z,1.00
2022-10-24T23:52:29.134Z,1.00
2022-10-24T23:54:56.321Z,1.02
2022-10-24T23:57:23.477Z,0.98
2022-10-24T23:59:50.309Z,1.10
